createdAt,value
2023-02-05T00:00:46.210Z,4.49
2023-02-05T00:03:14.959Z,4.55
2023-02-05T00:05:42.502Z,4.60
2023-02-05T00:08:09.983Z,4.61
2023-02-05T00:10:37.501Z,4.61
2023-02-05T00:13:04.961Z,4.20
2023-02-05T00:15:33.047Z,4.48
2023-02-05T00:18:00.608Z,4.17
2023-02-05T00:20:28.755Z,4.11
2023-02-05T00:22:56.957Z,4.02
2023-02-05T00:25:24.522Z,3.98
2023-02-05T00:27:52.032Z,3.74
2023-02-05T00:30:19.939Z,3.86
2023-02-05T00:32:47.510Z,4.30
2023-02-05T00:35:15.056Z,3.99
2023-02-05T00:37:42.551Z,4.19
2023-02-05T00:40:11.618Z,4.11
2023-02-05T00:42:39.136Z,3.89
2023-02-05T00:45:08.518Z,3.57
2023-02-05T00:47:35.948Z,3.54
2023-02-05T00:50:03.598Z,3.53
2023-02-05T00:52:31.078Z,3.56
2023-02-05T00:54:58.687Z,3.54
2023-02-05T00:57:26.522Z,3.46
2023-02-05T00:59:54.151Z,3.44
2023-02-05T01:02:24.020Z,3.29
2023-02-05T01:04:52.918Z,3.25
2023-02-05T01:07:21.281Z,3.14
2023-02-05T01:09:49.206Z,3.27
2023-02-05T01:12:16.945Z,3.08
2023-02-05T01:14:44.360Z,2.98
2023-02-05T01:17:11.906Z,2.93
2023-02-05T01:19:39.355Z,3.18
2023-02-05T01:22:06.993Z,3.19
2023-02-05T01:24:37.534Z,3.51
2023-02-05T01:27:05.251Z,3.19
2023-02-05T01:29:32.759Z,3.26
2023-02-05T01:32:00.405Z,3.35
2023-02-05T01:34:27.872Z,3.51
2023-02-05T01:36:55.389Z,3.65
2023-02-05T01:39:23.122Z,3.33
2023-02-05T01:41:50.859Z,3.33
2023-02-05T01:44:24.445Z,3.40
2023-02-05T01:46:56.131Z,3.22
2023-02-05T01:49:35.793Z,3.18
2023-02-05T01:52:12.154Z,3.02
2023-02-05T01:54:45.034Z,2.89
2023-02-05T01:57:19.250Z,2.76
2023-02-05T01:59:49.090Z,2.59
2023-02-05T02:02:17.392Z,3.03
2023-02-05T02:04:51.140Z,2.90
2023-02-05T02:07:24.892Z,2.95
2023-02-05T02:09:54.334Z,2.80
2023-02-05T02:12:28.020Z,2.55
2023-02-05T02:15:03.553Z,2.42
2023-02-05T02:17:39.257Z,2.39
2023-02-05T02:20:12.510Z,1.94
2023-02-05T02:23:46.199Z,2.13
2023-02-05T02:26:46.231Z,2.08
2023-02-05T02:29:35.955Z,2.07
2023-02-05T02:32:58.662Z,2.14
2023-02-05T02:35:41.104Z,2.06
2023-02-05T02:38:17.167Z,2.29
2023-02-05T02:40:56.047Z,2.15
2023-02-05T02:43:36.272Z,1.91
2023-02-05T02:46:34.327Z,1.93
2023-02-05T02:49:07.344Z,2.19
2023-02-05T02:51:38.730Z,2.14
2023-02-05T02:54:12.708Z,1.85
2023-02-05T02:56:41.909Z,1.93
2023-02-05T02:59:17.982Z,1.96
2023-02-05T03:01:54.046Z,1.80
2023-02-05T03:04:33.905Z,1.80
2023-02-05T03:07:20.504Z,1.67
2023-02-05T03:10:02.216Z,1.86
2023-02-05T03:12:30.864Z,2.12
2023-02-05T03:14:58.673Z,1.88
2023-02-05T03:17:27.500Z,1.82
2023-02-05T03:20:24.804Z,1.64
2023-02-05T03:22:52.780Z,1.89
2023-02-05T03:25:23.150Z,1.81
2023-02-05T03:27:55.279Z,1.77
2023-02-05T03:30:37.945Z,1.72
2023-02-05T03:33:29.931Z,1.55
2023-02-05T03:36:29.313Z,1.69
2023-02-05T03:39:04.917Z,1.56
2023-02-05T03:42:13.597Z,1.66
2023-02-05T03:44:54.870Z,1.69
2023-02-05T03:47:35.204Z,1.36
2023-02-05T03:50:11.454Z,1.43
2023-02-05T03:52:47.670Z,1.24
2023-02-05T03:55:24.312Z,1.11
2023-02-05T03:58:07.300Z,1.12
2023-02-05T04:00:36.008Z,0.89
2023-02-05T04:03:04.607Z,1.21
2023-02-05T04:05:34.435Z,0.95
2023-02-05T04:08:03.945Z,1.23
2023-02-05T04:10:37.439Z,1.26
2023-02-05T04:13:05.096Z,1.18
2023-02-05T04:15:34.476Z,1.16
2023-02-05T04:18:04.965Z,1.20
2023-02-05T04:20:32.413Z,1.28
2023-02-05T04:23:00.520Z,1.03
2023-02-05T04:25:30.107Z,0.99
2023-02-05T04:28:01.266Z,1.05
2023-02-05T04:30:29.561Z,1.04
2023-02-05T04:32:57.268Z,1.44
2023-02-05T04:35:25.280Z,1.60
2023-02-05T04:37:52.819Z,1.33
2023-02-05T04:40:20.456Z,1.11
2023-02-05T04:42:48.072Z,1.09
2023-02-05T04:45:15.652Z,0.86
2023-02-05T04:47:43.120Z,1.16
2023-02-05T04:50:10.920Z,1.13
2023-02-05T04:52:38.496Z,1.16
2023-02-05T04:55:06.695Z,1.21
2023-02-05T04:57:34.197Z,1.35
2023-02-05T05:00:01.630Z,1.25
2023-02-05T05:02:29.164Z,1.41
2023-02-05T05:04:56.637Z,1.44
2023-02-05T05:07:24.089Z,1.52
2023-02-05T05:09:52.581Z,1.62
2023-02-05T05:12:20.201Z,1.78
2023-02-05T05:14:47.665Z,1.90
2023-02-05T05:17:15.169Z,1.60
2023-02-05T05:19:42.733Z,1.57
2023-02-05T05:22:10.588Z,1.88
2023-02-05T05:24:38.057Z,2.06
2023-02-05T05:27:05.662Z,1.68
2023-02-05T05:29:35.133Z,1.46
2023-02-05T05:32:02.819Z,1.42
2023-02-05T05:34:32.763Z,1.39
2023-02-05T05:37:03.424Z,1.65
2023-02-05T05:39:50.479Z,1.59
2023-02-05T05:42:37.766Z,1.61
2023-02-05T05:45:05.793Z,1.62
2023-02-05T05:47:33.288Z,1.54
2023-02-05T05:50:00.730Z,1.68
2023-02-05T05:52:28.169Z,1.72
2023-02-05T05:54:55.618Z,2.02
2023-02-05T05:57:23.092Z,1.94
2023-02-05T05:59:50.601Z,1.94
2023-02-05T06:02:18.150Z,1.96
2023-02-05T06:04:45.979Z,1.84
2023-02-05T06:07:13.558Z,1.64
2023-02-05T06:09:42.108Z,1.68
2023-02-05T06:12:11.562Z,2.19
2023-02-05T06:14:39.385Z,1.71
2023-02-05T06:17:09.520Z,1.70
2023-02-05T06:19:37.016Z,1.67
2023-02-05T06:22:04.529Z,1.79
2023-02-05T06:24:31.965Z,1.86
2023-02-05T06:26:59.551Z,1.43
2023-02-05T06:29:28.120Z,1.20
2023-02-05T06:31:55.682Z,1.02
2023-02-05T06:34:23.336Z,1.21
2023-02-05T06:36:50.818Z,1.07
2023-02-05T06:39:18.244Z,1.57
2023-02-05T06:41:45.711Z,1.56
2023-02-05T06:44:13.262Z,1.88
2023-02-05T06:46:40.786Z,1.46
2023-02-05T06:49:08.362Z,1.45
2023-02-05T06:51:35.825Z,1.81
2023-02-05T06:54:04.774Z,1.53
2023-02-05T06:56:32.334Z,1.60
2023-02-05T06:58:59.804Z,1.77
2023-02-05T07:01:27.264Z,1.69
2023-02-05T07:03:56.261Z,1.95
2023-02-05T07:06:25.764Z,2.11
2023-02-05T07:08:54.192Z,1.72
2023-02-05T07:11:23.302Z,1.87
2023-02-05T07:13:50.853Z,1.71
2023-02-05T07:16:18.657Z,1.65
2023-02-05T07:18:46.250Z,1.93
2023-02-05T07:21:17.370Z,1.64
2023-02-05T07:23:45.105Z,2.05
2023-02-05T07:26:16.027Z,1.97
2023-02-05T07:28:44.510Z,2.23
2023-02-05T07:31:18.776Z,2.39
2023-02-05T07:33:47.775Z,2.10
2023-02-05T07:36:17.846Z,1.98
2023-02-05T07:38:48.119Z,1.78
2023-02-05T07:41:17.314Z,2.01
2023-02-05T07:43:45.031Z,2.45
2023-02-05T07:46:15.566Z,2.55
2023-02-05T07:48:43.120Z,2.81
2023-02-05T07:51:20.854Z,2.68
2023-02-05T07:53:49.190Z,2.51
2023-02-05T07:56:17.580Z,2.82
2023-02-05T07:58:45.140Z,2.67
2023-02-05T08:01:12.692Z,2.69
2023-02-05T08:03:40.297Z,2.74
2023-02-05T08:06:15.424Z,2.96
2023-02-05T08:08:43.898Z,2.74
2023-02-05T08:11:16.191Z,2.39
2023-02-05T08:13:44.849Z,2.72
2023-02-05T08:16:15.805Z,3.32
2023-02-05T08:18:47.019Z,3.37
2023-02-05T08:21:14.512Z,3.55
2023-02-05T08:23:41.984Z,3.30
2023-02-05T08:26:09.737Z,3.12
2023-02-05T08:28:38.354Z,3.13
2023-02-05T08:31:19.084Z,3.49
2023-02-05T08:33:47.885Z,3.60
2023-02-05T08:36:15.638Z,3.69
2023-02-05T08:38:43.173Z,3.78
2023-02-05T08:41:14.064Z,3.98
2023-02-05T08:43:44.502Z,4.40
2023-02-05T08:46:15.533Z,4.53
2023-02-05T08:48:43.154Z,4.63
2023-02-05T08:51:12.751Z,4.80
2023-02-05T08:53:40.661Z,4.97
2023-02-05T08:56:10.796Z,5.08
2023-02-05T08:58:40.299Z,5.27
2023-02-05T09:01:13.455Z,5.46
2023-02-05T09:03:41.194Z,5.38
2023-02-05T09:06:14.235Z,5.13
2023-02-05T09:08:42.122Z,4.97
2023-02-05T09:11:09.926Z,4.98
2023-02-05T09:13:37.973Z,5.06
2023-02-05T09:16:09.861Z,5.36
2023-02-05T09:18:37.411Z,5.54
2023-02-05T09:21:09.046Z,5.69
2023-02-05T09:23:37.174Z,5.63
2023-02-05T09:26:05.786Z,5.62
2023-02-05T09:28:34.718Z,5.78
2023-02-05T09:31:18.557Z,5.95
2023-02-05T09:33:47.055Z,5.94
2023-02-05T09:36:23.315Z,5.97
2023-02-05T09:39:01.965Z,5.89
2023-02-05T09:41:50.314Z,6.06
2023-02-05T09:44:32.976Z,5.87
2023-02-05T09:47:15.401Z,5.84
2023-02-05T09:50:15.324Z,5.94
2023-02-05T09:52:53.424Z,6.24
2023-02-05T09:55:26.817Z,6.07
2023-02-05T09:58:02.782Z,5.88
2023-02-05T10:00:54.353Z,5.97
2023-02-05T10:03:42.746Z,5.91
2023-02-05T10:06:40.754Z,6.07
2023-02-05T10:10:03.295Z,6.20
2023-02-05T10:13:07.415Z,6.11
2023-02-05T10:16:20.824Z,6.17
2023-02-05T10:19:22.184Z,6.48
2023-02-05T10:22:13.499Z,6.22
2023-02-05T10:25:25.202Z,6.46
2023-02-05T10:28:17.051Z,6.41
2023-02-05T10:31:36.128Z,6.34
2023-02-05T10:35:00.204Z,6.63
2023-02-05T10:37:48.618Z,6.51
2023-02-05T10:40:35.601Z,6.63
2023-02-05T10:43:43.877Z,6.80
2023-02-05T10:46:17.033Z,7.01
2023-02-05T10:48:56.510Z,7.00
2023-02-05T10:51:36.806Z,7.24
2023-02-05T10:54:06.585Z,7.40
2023-02-05T10:56:37.974Z,7.20
2023-02-05T10:59:10.420Z,7.14
2023-02-05T11:01:39.052Z,6.99
2023-02-05T11:04:17.620Z,7.12
2023-02-05T11:07:12.242Z,7.11
2023-02-05T11:09:41.522Z,7.01
2023-02-05T11:12:31.280Z,7.01
2023-02-05T11:15:06.188Z,7.30
2023-02-05T11:17:37.518Z,7.61
2023-02-05T11:20:11.763Z,7.42
2023-02-05T11:22:40.665Z,7.54
2023-02-05T11:25:17.981Z,7.45
2023-02-05T11:27:55.368Z,7.25
2023-02-05T11:30:50.518Z,7.35
2023-02-05T11:33:27.310Z,7.45
2023-02-05T11:36:04.249Z,7.61
2023-02-05T11:38:37.462Z,7.73
2023-02-05T11:41:09.116Z,7.62
2023-02-05T11:43:49.853Z,7.46
2023-02-05T11:46:24.490Z,7.28
2023-02-05T11:49:01.991Z,6.77
2023-02-05T11:51:46.569Z,6.80
2023-02-05T11:54:27.241Z,6.76
2023-02-05T11:57:21.388Z,6.85
2023-02-05T12:00:20.392Z,6.63
2023-02-05T12:02:53.824Z,6.41
2023-02-05T12:05:39.375Z,6.47
2023-02-05T12:08:31.988Z,6.56
2023-02-05T12:11:56.148Z,6.59
2023-02-05T12:15:16.798Z,6.40
2023-02-05T12:18:16.605Z,6.20
2023-02-05T12:21:25.646Z,6.23
2023-02-05T12:24:35.918Z,6.12
2023-02-05T12:27:20.786Z,6.07
2023-02-05T12:30:27.511Z,5.87
2023-02-05T12:33:24.645Z,5.96
2023-02-05T12:36:30.964Z,5.77
2023-02-05T12:39:40.226Z,5.69
2023-02-05T12:42:51.973Z,5.44
2023-02-05T12:45:40.259Z,5.40
2023-02-05T12:48:27.332Z,5.42
2023-02-05T12:51:25.877Z,5.48
2023-02-05T12:54:04.692Z,5.29
2023-02-05T12:57:05.910Z,5.29
2023-02-05T12:59:50.962Z,5.12
2023-02-05T13:03:10.555Z,5.11
2023-02-05T13:06:17.529Z,5.06
2023-02-05T13:09:12.311Z,4.94
2023-02-05T13:12:01.128Z,5.08
2023-02-05T13:14:55.491Z,5.12
2023-02-05T13:17:25.358Z,5.02
2023-02-05T13:19:59.730Z,4.74
2023-02-05T13:23:03.026Z,4.63
2023-02-05T13:26:06.711Z,4.58
2023-02-05T13:28:45.237Z,4.46
2023-02-05T13:31:21.483Z,4.70
2023-02-05T13:33:52.194Z,4.66
2023-02-05T13:36:31.316Z,4.53
2023-02-05T13:39:44.505Z,4.55
2023-02-05T13:42:42.222Z,4.69
2023-02-05T13:46:15.802Z,4.71
2023-02-05T13:49:03.826Z,4.57
2023-02-05T13:52:25.626Z,4.52
2023-02-05T13:55:34.048Z,4.63
2023-02-05T13:58:10.800Z,4.58
2023-02-05T14:01:08.511Z,4.41
2023-02-05T14:04:08.411Z,4.50
2023-02-05T14:06:43.242Z,4.58
2023-02-05T14:09:38.079Z,4.54
2023-02-05T14:12:15.802Z,4.51
2023-02-05T14:14:48.692Z,4.47
2023-02-05T14:17:32.561Z,4.46
2023-02-05T14:20:05.988Z,4.28
2023-02-05T14:22:44.783Z,4.41
2023-02-05T14:25:59.928Z,4.31
2023-02-05T14:28:32.962Z,4.31
2023-02-05T14:31:07.313Z,4.51
2023-02-05T14:33:45.864Z,4.42
2023-02-05T14:36:17.019Z,4.52
2023-02-05T14:39:20.023Z,4.44
2023-02-05T14:41:55.024Z,4.31
2023-02-05T14:44:37.411Z,4.42
2023-02-05T14:47:30.160Z,5.04
2023-02-05T14:50:12.016Z,4.75
2023-02-05T14:52:55.468Z,4.90
2023-02-05T14:55:57.786Z,4.45
2023-02-05T14:58:59.557Z,4.98
2023-02-05T15:01:36.934Z,4.79
2023-02-05T15:04:56.936Z,3.97
2023-02-05T15:07:27.752Z,3.80
2023-02-05T15:10:08.178Z,3.88
2023-02-05T15:12:56.972Z,3.70
2023-02-05T15:15:39.113Z,3.45
2023-02-05T15:18:48.367Z,3.42
2023-02-05T15:21:50.786Z,3.49
2023-02-05T15:24:27.922Z,3.62
2023-02-05T15:27:39.359Z,3.68
2023-02-05T15:30:24.979Z,3.87
2023-02-05T15:33:41.767Z,3.72
2023-02-05T15:36:29.757Z,3.71
2023-02-05T15:39:44.765Z,4.04
2023-02-05T15:42:49.963Z,3.84
2023-02-05T15:45:34.891Z,3.51
2023-02-05T15:48:13.593Z,3.83
2023-02-05T15:51:06.556Z,3.78
2023-02-05T15:53:39.250Z,3.78
2023-02-05T15:56:24.290Z,3.98
2023-02-05T15:59:24.686Z,3.65
2023-02-05T16:02:05.677Z,3.77
2023-02-05T16:04:39.058Z,3.43
2023-02-05T16:07:31.227Z,3.29
2023-02-05T16:10:02.382Z,3.72
2023-02-05T16:12:50.111Z,3.33
2023-02-05T16:15:18.442Z,3.22
2023-02-05T16:17:52.758Z,3.40
2023-02-05T16:20:34.690Z,3.05
2023-02-05T16:23:11.066Z,3.23
2023-02-05T16:26:02.416Z,3.04
2023-02-05T16:28:46.523Z,3.09
2023-02-05T16:31:24.504Z,3.15
2023-02-05T16:34:03.225Z,3.06
2023-02-05T16:36:38.524Z,3.09
2023-02-05T16:39:20.679Z,3.03
2023-02-05T16:42:12.494Z,3.00
2023-02-05T16:44:41.126Z,2.93
2023-02-05T16:47:20.443Z,3.19
2023-02-05T16:49:49.739Z,3.09
2023-02-05T16:52:41.379Z,2.69
2023-02-05T16:55:27.002Z,2.97
2023-02-05T16:58:04.987Z,2.73
2023-02-05T17:00:34.583Z,2.68
2023-02-05T17:03:20.444Z,2.80
2023-02-05T17:05:57.376Z,2.85
2023-02-05T17:08:37.929Z,2.60
2023-02-05T17:11:12.317Z,2.81
2023-02-05T17:13:44.859Z,2.89
2023-02-05T17:16:32.469Z,2.71
2023-02-05T17:19:06.337Z,2.95
2023-02-05T17:21:40.385Z,2.84
2023-02-05T17:24:16.934Z,2.36
2023-02-05T17:26:45.783Z,2.57
2023-02-05T17:29:18.204Z,2.26
2023-02-05T17:31:45.776Z,1.89
2023-02-05T17:34:15.669Z,2.09
2023-02-05T17:36:44.722Z,1.97
2023-02-05T17:39:15.578Z,2.14
2023-02-05T17:42:11.086Z,2.10
2023-02-05T17:44:38.585Z,2.13
2023-02-05T17:47:08.794Z,2.20
2023-02-05T17:49:38.191Z,2.12
2023-02-05T17:52:07.280Z,2.03
2023-02-05T17:54:34.824Z,2.17
2023-02-05T17:57:22.561Z,1.94
2023-02-05T17:59:51.914Z,2.15
2023-02-05T18:02:21.510Z,2.33
2023-02-05T18:04:56.457Z,2.32
2023-02-05T18:07:46.924Z,2.19
2023-02-05T18:10:23.784Z,1.89
2023-02-05T18:12:55.527Z,1.93
2023-02-05T18:15:27.787Z,2.09
2023-02-05T18:17:55.923Z,1.91
2023-02-05T18:20:28.314Z,1.85
2023-02-05T18:23:27.643Z,1.68
2023-02-05T18:26:00.890Z,1.84
2023-02-05T18:28:31.727Z,1.74
2023-02-05T18:31:07.510Z,2.04
2023-02-05T18:33:38.428Z,1.95
2023-02-05T18:36:15.241Z,1.94
2023-02-05T18:38:50.231Z,1.80
2023-02-05T18:41:25.944Z,1.83
2023-02-05T18:44:07.270Z,1.95
2023-02-05T18:46:35.601Z,1.76
2023-02-05T18:49:06.674Z,1.84
2023-02-05T18:51:37.007Z,2.00
2023-02-05T18:54:08.766Z,1.99
2023-02-05T18:56:40.577Z,1.82
2023-02-05T18:59:15.470Z,1.75
2023-02-05T19:01:45.612Z,1.77
2023-02-05T19:04:18.677Z,1.71
2023-02-05T19:06:53.585Z,1.70
2023-02-05T19:09:23.098Z,1.58
2023-02-05T19:11:52.652Z,1.64
2023-02-05T19:14:31.135Z,1.59
2023-02-05T19:17:02.355Z,2.05
2023-02-05T19:19:33.371Z,1.90
2023-02-05T19:22:05.134Z,1.68
2023-02-05T19:24:33.909Z,1.54
2023-02-05T19:27:02.258Z,1.41
2023-02-05T19:29:35.096Z,1.73
2023-02-05T19:32:06.962Z,1.74
2023-02-05T19:34:40.156Z,1.67
2023-02-05T19:37:11.852Z,1.83
2023-02-05T19:39:39.793Z,1.33
2023-02-05T19:42:08.074Z,1.09
2023-02-05T19:44:36.054Z,1.03
2023-02-05T19:47:04.057Z,1.44
2023-02-05T19:49:52.153Z,1.19
2023-02-05T19:52:20.428Z,0.82
2023-02-05T19:54:47.982Z,0.81
2023-02-05T19:57:15.495Z,0.77
2023-02-05T19:59:43.911Z,0.77
2023-02-05T20:02:19.458Z,0.75
2023-02-05T20:04:48.202Z,0.85
2023-02-05T20:07:15.743Z,0.74
2023-02-05T20:09:43.235Z,0.80
2023-02-05T20:12:13.102Z,0.73
2023-02-05T20:14:41.239Z,0.76
2023-02-05T20:17:09.422Z,0.80
2023-02-05T20:19:37.049Z,0.66
2023-02-05T20:22:04.646Z,0.62
2023-02-05T20:24:32.295Z,0.87
2023-02-05T20:27:00.379Z,0.86
2023-02-05T20:29:46.549Z,0.77
2023-02-05T20:32:18.034Z,0.63
2023-02-05T20:34:50.476Z,0.61
2023-02-05T20:37:19.911Z,0.62
2023-02-05T20:39:48.345Z,0.63
2023-02-05T20:42:17.303Z,0.71
2023-02-05T20:44:44.977Z,0.64
2023-02-05T20:47:15.089Z,0.54
2023-02-05T20:49:45.221Z,0.67
2023-02-05T20:52:13.006Z,0.62
2023-02-05T20:54:42.036Z,0.72
2023-02-05T20:57:12.844Z,0.67
2023-02-05T20:59:40.407Z,0.74
2023-02-05T21:02:28.013Z,0.56
2023-02-05T21:04:55.557Z,0.61
2023-02-05T21:07:29.346Z,0.76
2023-02-05T21:09:57.740Z,0.74
2023-02-05T21:12:29.450Z,0.59
2023-02-05T21:14:58.299Z,0.65
2023-02-05T21:17:26.198Z,0.57
2023-02-05T21:19:53.641Z,0.59
2023-02-05T21:22:21.213Z,0.55
2023-02-05T21:24:48.973Z,0.52
2023-02-05T21:27:21.873Z,0.57
2023-02-05T21:29:49.523Z,0.64
2023-02-05T21:32:17.026Z,0.79
2023-02-05T21:34:45.101Z,1.00
2023-02-05T21:37:12.597Z,0.78
2023-02-05T21:39:41.028Z,1.12
2023-02-05T21:42:08.609Z,1.04
2023-02-05T21:44:36.773Z,1.07
2023-02-05T21:47:04.614Z,0.61
2023-02-05T21:49:32.561Z,0.72
2023-02-05T21:52:00.015Z,0.41
2023-02-05T21:54:28.835Z,0.38
2023-02-05T21:56:56.308Z,0.30
2023-02-05T21:59:23.829Z,0.42
2023-02-05T22:01:51.467Z,0.41
2023-02-05T22:04:25.039Z,0.26
2023-02-05T22:06:52.696Z,0.23
2023-02-05T22:09:20.620Z,0.27
2023-02-05T22:11:50.698Z,0.22
2023-02-05T22:14:18.280Z,0.38
2023-02-05T22:16:46.311Z,0.22
2023-02-05T22:19:13.972Z,0.24
2023-02-05T22:21:43.373Z,0.15
2023-02-05T22:24:16.951Z,0.30
2023-02-05T22:26:45.912Z,0.19
2023-02-05T22:29:17.686Z,0.25
2023-02-05T22:31:52.321Z,0.50
2023-02-05T22:34:20.294Z,0.31
2023-02-05T22:36:47.915Z,0.31
2023-02-05T22:39:15.404Z,0.37
2023-02-05T22:41:44.215Z,0.41
2023-02-05T22:44:12.650Z,0.31
2023-02-05T22:46:43.475Z,0.40
2023-02-05T22:49:15.455Z,0.42
2023-02-05T22:51:43.379Z,0.60
2023-02-05T22:54:13.779Z,0.68
2023-02-05T22:56:42.134Z,0.64
2023-02-05T22:59:09.732Z,0.71
2023-02-05T23:01:39.137Z,0.77
2023-02-05T23:04:08.954Z,0.80
2023-02-05T23:06:40.584Z,0.87
2023-02-05T23:09:13.902Z,0.82
2023-02-05T23:11:43.669Z,0.89
2023-02-05T23:14:13.371Z,0.95
2023-02-05T23:16:43.521Z,1.06
2023-02-05T23:19:18.373Z,0.98
2023-02-05T23:21:47.381Z,0.94
2023-02-05T23:24:36.390Z,0.83
2023-02-05T23:27:05.637Z,0.91
2023-02-05T23:29:33.096Z,0.89
2023-02-05T23:32:00.585Z,0.98
2023-02-05T23:34:28.350Z,0.82
2023-02-05T23:36:56.640Z,0.90
2023-02-05T23:39:24.320Z,0.76
2023-02-05T23:41:51.742Z,0.77
2023-02-05T23:44:20.482Z,0.82
2023-02-05T23:46:50.391Z,0.84
2023-02-05T23:49:21.862Z,0.93
2023-02-05T23:51:54.391Z,0.82
2023-02-05T23:54:23.963Z,0.65
2023-02-05T23:56:51.880Z,0.64
2023-02-05T23:59:19.564Z,0.52
